createdAt,value
2018-11-25T00:00:09.812Z,12.20
2018-11-25T00:02:39.026Z,12.13
2018-11-25T00:05:08.548Z,14.18
2018-11-25T00:07:38.047Z,13.22
2018-11-25T00:10:07.795Z,12.95
2018-11-25T00:12:39.297Z,14.07
2018-11-25T00:15:09.109Z,14.60
2018-11-25T00:17:37.619Z,17.95
2018-11-25T00:20:09.422Z,16.85
2018-11-25T00:22:37.886Z,14.10
2018-11-25T00:25:07.898Z,13.25
2018-11-25T00:27:36.315Z,13.43
2018-11-25T00:30:05.066Z,14.43
2018-11-25T00:32:33.497Z,15.23
2018-11-25T00:35:01.972Z,16.45
2018-11-25T00:37:30.444Z,15.90
2018-11-25T00:39:58.879Z,14.30
2018-11-25T00:42:27.415Z,16.40
2018-11-25T00:44:55.895Z,16.05
2018-11-25T00:47:24.323Z,16.55
2018-11-25T00:49:52.814Z,15.30
2018-11-25T00:52:21.226Z,16.62
2018-11-25T00:54:49.653Z,15.80
2018-11-25T00:57:18.062Z,16.75
2018-11-25T00:59:46.524Z,17.17
2018-11-25T01:02:14.938Z,17.45
2018-11-25T01:04:43.396Z,17.20
2018-11-25T01:07:11.851Z,18.15
2018-11-25T01:09:40.287Z,19.27
2018-11-25T01:12:08.684Z,17.73
2018-11-25T01:14:37.670Z,18.12
2018-11-25T01:17:06.388Z,18.17
2018-11-25T01:19:34.869Z,18.73
2018-11-25T01:22:03.682Z,18.60
2018-11-25T01:24:33.723Z,16.60
2018-11-25T01:27:02.132Z,17.65
2018-11-25T01:29:31.106Z,15.85
2018-11-25T01:31:59.546Z,16.67
2018-11-25T01:34:28.010Z,17.48
2018-11-25T01:36:56.420Z,16.75
2018-11-25T01:39:24.834Z,17.40
2018-11-25T01:41:53.176Z,17.57
2018-11-25T01:44:21.587Z,18.25
2018-11-25T01:46:53.373Z,18.07
2018-11-25T01:49:22.595Z,18.85
2018-11-25T01:51:50.179Z,18.55
2018-11-25T01:54:18.663Z,17.30
2018-11-25T01:56:47.122Z,19.85
2018-11-25T01:59:18.097Z,20.80
2018-11-25T02:01:48.496Z,24.07
2018-11-25T02:04:16.989Z,22.98
2018-11-25T02:06:45.395Z,24.40
2018-11-25T02:09:13.794Z,25.88
2018-11-25T02:11:42.482Z,26.57
2018-11-25T02:14:10.838Z,26.42
2018-11-25T02:16:39.262Z,24.75
2018-11-25T02:19:07.786Z,23.95
2018-11-25T02:21:36.180Z,22.50
2018-11-25T02:24:04.609Z,22.93
2018-11-25T02:26:32.956Z,23.18
2018-11-25T02:29:03.908Z,23.10
2018-11-25T02:31:32.308Z,22.60
2018-11-25T02:34:00.684Z,23.18
2018-11-25T02:36:29.130Z,30.62
2018-11-25T02:38:58.596Z,25.85
2018-11-25T02:41:27.078Z,22.42
2018-11-25T02:43:55.487Z,22.27
2018-11-25T02:46:28.636Z,23.15
2018-11-25T02:48:57.176Z,22.65
2018-11-25T02:51:26.306Z,22.25
2018-11-25T02:53:54.808Z,21.57
2018-11-25T02:56:26.902Z,22.65
2018-11-25T02:58:55.686Z,22.30
2018-11-25T03:01:24.120Z,21.50
2018-11-25T03:03:52.631Z,22.05
2018-11-25T03:06:21.060Z,23.15
2018-11-25T03:08:52.195Z,23.05
2018-11-25T03:11:20.672Z,23.45
2018-11-25T03:13:49.144Z,24.20
2018-11-25T03:16:17.547Z,22.95
2018-11-25T03:18:45.954Z,21.33
2018-11-25T03:21:14.499Z,19.10
2018-11-25T03:23:43.164Z,21.15
2018-11-25T03:26:11.586Z,22.93
2018-11-25T03:28:40.000Z,23.90
2018-11-25T03:31:09.562Z,22.05
2018-11-25T03:33:38.054Z,21.45
2018-11-25T03:36:06.574Z,19.95
2018-11-25T03:38:35.029Z,20.10
2018-11-25T03:41:03.509Z,20.00
2018-11-25T03:43:31.908Z,20.92
2018-11-25T03:46:00.336Z,21.12
2018-11-25T03:48:28.796Z,20.88
2018-11-25T03:50:57.295Z,22.22
2018-11-25T03:53:25.767Z,21.15
2018-11-25T03:55:54.217Z,22.70
2018-11-25T03:58:22.684Z,21.62
2018-11-25T04:00:51.131Z,20.48
2018-11-25T04:03:19.527Z,22.20
2018-11-25T04:05:48.204Z,23.50
2018-11-25T04:08:16.670Z,22.67
2018-11-25T04:10:45.223Z,21.57
2018-11-25T04:13:13.709Z,21.07
2018-11-25T04:15:42.101Z,25.77
2018-11-25T04:18:10.574Z,26.73
2018-11-25T04:20:39.072Z,26.80
2018-11-25T04:23:07.460Z,26.68
2018-11-25T04:25:35.881Z,26.20
2018-11-25T04:28:04.406Z,24.20
2018-11-25T04:30:32.874Z,24.52
2018-11-25T04:33:01.257Z,24.60
2018-11-25T04:35:29.726Z,22.75
2018-11-25T04:37:58.145Z,23.12
2018-11-25T04:40:26.610Z,23.32
2018-11-25T04:42:55.048Z,22.22
2018-11-25T04:45:23.611Z,22.73
2018-11-25T04:47:52.044Z,23.40
2018-11-25T04:50:21.303Z,22.37
2018-11-25T04:52:49.924Z,23.27
2018-11-25T04:55:18.332Z,20.70
2018-11-25T04:57:49.474Z,20.40
2018-11-25T05:00:18.159Z,20.32
2018-11-25T05:02:46.713Z,20.10
2018-11-25T05:05:23.315Z,21.87
2018-11-25T05:07:51.815Z,21.40
2018-11-25T05:10:20.131Z,22.50
2018-11-25T05:12:48.615Z,21.70
2018-11-25T05:15:19.881Z,21.10
2018-11-25T05:17:48.382Z,22.07
2018-11-25T05:20:17.475Z,20.75
2018-11-25T05:22:45.931Z,20.70
2018-11-25T05:25:15.256Z,21.52
2018-11-25T05:27:43.733Z,23.22
2018-11-25T05:30:15.226Z,22.82
2018-11-25T05:32:43.717Z,23.20
2018-11-25T05:35:13.375Z,21.82
2018-11-25T05:37:41.815Z,21.15
2018-11-25T05:40:11.427Z,19.90
2018-11-25T05:42:39.815Z,21.23
2018-11-25T05:45:12.625Z,19.50
2018-11-25T05:47:41.054Z,20.57
2018-11-25T05:50:10.992Z,19.37
2018-11-25T05:52:39.523Z,23.30
2018-11-25T05:55:08.916Z,21.25
2018-11-25T05:57:37.373Z,20.68
2018-11-25T06:00:15.732Z,19.48
2018-11-25T06:02:44.215Z,21.20
2018-11-25T06:05:12.676Z,20.05
2018-11-25T06:07:41.411Z,19.45
2018-11-25T06:10:11.738Z,20.95
2018-11-25T06:12:40.378Z,19.35
2018-11-25T06:15:11.210Z,19.80
2018-11-25T06:17:39.693Z,21.37
2018-11-25T06:20:13.137Z,21.00
2018-11-25T06:22:41.804Z,20.97
2018-11-25T06:25:13.488Z,20.72
2018-11-25T06:27:41.941Z,20.52
2018-11-25T06:30:13.759Z,19.77
2018-11-25T06:32:42.252Z,18.77
2018-11-25T06:35:11.998Z,20.43
2018-11-25T06:37:40.454Z,21.50
2018-11-25T06:40:11.344Z,21.90
2018-11-25T06:42:39.800Z,20.08
2018-11-25T06:45:13.086Z,20.55
2018-11-25T06:47:41.606Z,20.27
2018-11-25T06:50:12.446Z,19.30
2018-11-25T06:52:39.875Z,19.32
2018-11-25T06:55:10.707Z,21.10
2018-11-25T06:57:39.230Z,21.15
2018-11-25T07:00:25.895Z,20.12
2018-11-25T07:02:54.460Z,19.25
2018-11-25T07:05:22.912Z,21.42
2018-11-25T07:07:51.370Z,23.00
2018-11-25T07:10:20.896Z,22.40
2018-11-25T07:12:51.412Z,20.40
2018-11-25T07:15:19.855Z,22.32
2018-11-25T07:17:48.523Z,23.62
2018-11-25T07:20:18.719Z,21.50
2018-11-25T07:22:47.370Z,23.38
2018-11-25T07:25:19.323Z,25.02
2018-11-25T07:27:47.788Z,22.25
2018-11-25T07:30:18.648Z,20.90
2018-11-25T07:32:47.141Z,24.50
2018-11-25T07:35:15.555Z,22.98
2018-11-25T07:37:44.261Z,22.93
2018-11-25T07:40:14.927Z,21.00
2018-11-25T07:42:43.436Z,21.30
2018-11-25T07:45:13.204Z,21.45
2018-11-25T07:47:42.614Z,21.15
2018-11-25T07:50:12.257Z,20.20
2018-11-25T07:52:41.267Z,21.82
2018-11-25T07:55:14.091Z,21.87
2018-11-25T07:57:44.066Z,28.45
2018-11-25T08:00:19.126Z,24.45
2018-11-25T08:02:47.658Z,22.82
2018-11-25T08:05:17.538Z,23.62
2018-11-25T08:07:45.996Z,23.45
2018-11-25T08:10:15.329Z,22.73
2018-11-25T08:12:44.070Z,26.27
2018-11-25T08:15:13.452Z,23.25
2018-11-25T08:17:41.993Z,25.52
2018-11-25T08:20:12.488Z,26.82
2018-11-25T08:22:41.119Z,25.02
2018-11-25T08:25:12.444Z,24.15
2018-11-25T08:27:41.216Z,25.02
2018-11-25T08:30:20.189Z,23.22
2018-11-25T08:32:48.743Z,21.02
2018-11-25T08:35:17.633Z,21.33
2018-11-25T08:37:46.156Z,21.50
2018-11-25T08:40:22.473Z,22.10
2018-11-25T08:42:51.110Z,23.15
2018-11-25T08:45:19.991Z,22.45
2018-11-25T08:47:48.693Z,22.75
2018-11-25T08:50:18.296Z,21.80
2018-11-25T08:52:51.691Z,22.70
2018-11-25T08:55:22.651Z,23.98
2018-11-25T08:57:51.327Z,23.45
2018-11-25T09:00:21.354Z,22.42
2018-11-25T09:02:50.637Z,22.95
2018-11-25T09:05:19.083Z,22.58
2018-11-25T09:07:47.694Z,23.67
2018-11-25T09:10:22.693Z,26.50
2018-11-25T09:12:56.860Z,28.23
2018-11-25T09:15:27.239Z,22.93
2018-11-25T09:17:57.179Z,22.42
2018-11-25T09:20:25.977Z,22.85
2018-11-25T09:22:55.495Z,23.45
2018-11-25T09:25:26.181Z,23.38
2018-11-25T09:27:55.157Z,22.77
2018-11-25T09:30:25.626Z,23.85
2018-11-25T09:32:55.782Z,23.70
2018-11-25T09:35:24.770Z,24.40
2018-11-25T09:37:53.303Z,27.58
2018-11-25T09:40:24.073Z,27.25
2018-11-25T09:42:53.459Z,24.05
2018-11-25T09:45:22.631Z,29.35
2018-11-25T09:47:51.603Z,26.05
2018-11-25T09:50:22.205Z,23.92
2018-11-25T09:52:51.099Z,23.80
2018-11-25T09:55:21.732Z,24.87
2018-11-25T09:57:54.067Z,24.45
2018-11-25T10:00:23.768Z,25.95
2018-11-25T10:02:52.633Z,26.80
2018-11-25T10:05:21.092Z,26.97
2018-11-25T10:07:49.529Z,29.92
2018-11-25T10:10:21.833Z,28.70
2018-11-25T10:12:51.521Z,30.92
2018-11-25T10:15:22.974Z,28.50
2018-11-25T10:17:59.075Z,27.80
2018-11-25T10:20:21.133Z,29.72
2018-11-25T10:22:49.590Z,30.40
2018-11-25T10:25:18.214Z,29.48
2018-11-25T10:27:47.396Z,31.27
2018-11-25T10:30:19.455Z,29.60
2018-11-25T10:32:49.717Z,29.50
2018-11-25T10:35:18.288Z,27.73
2018-11-25T10:37:46.967Z,27.80
2018-11-25T10:40:16.591Z,30.55
2018-11-25T10:42:45.265Z,28.52
2018-11-25T10:45:25.559Z,29.02
2018-11-25T10:47:54.257Z,30.20
2018-11-25T10:50:23.447Z,28.32
2018-11-25T10:52:51.904Z,31.40
2018-11-25T10:55:21.049Z,31.73
2018-11-25T10:57:51.152Z,34.48
2018-11-25T11:00:31.700Z,30.72
2018-11-25T11:03:05.610Z,29.98
2018-11-25T11:05:39.359Z,31.07
2018-11-25T11:08:08.456Z,29.07
2018-11-25T11:10:36.979Z,30.05
2018-11-25T11:13:06.517Z,29.23
2018-11-25T11:15:34.996Z,30.00
2018-11-25T11:18:05.294Z,28.52
2018-11-25T11:20:33.800Z,30.68
2018-11-25T11:23:17.486Z,28.25
2018-11-25T11:25:45.920Z,31.97
2018-11-25T11:28:14.421Z,28.98
2018-11-25T11:30:43.443Z,27.40
2018-11-25T11:33:11.871Z,30.72
2018-11-25T11:35:41.952Z,27.82
2018-11-25T11:38:10.512Z,29.50
2018-11-25T11:40:39.022Z,29.37
2018-11-25T11:43:07.496Z,29.42
2018-11-25T11:45:35.935Z,33.92
2018-11-25T11:48:04.360Z,32.90
2018-11-25T11:50:32.748Z,37.00
2018-11-25T11:53:01.208Z,37.65
2018-11-25T11:55:29.619Z,36.35
2018-11-25T11:57:58.183Z,38.60
2018-11-25T12:00:29.116Z,35.40
2018-11-25T12:02:57.703Z,34.25
2018-11-25T12:05:26.224Z,31.57
2018-11-25T12:07:54.627Z,32.17
2018-11-25T12:10:23.335Z,33.30
2018-11-25T12:12:51.819Z,32.75
2018-11-25T12:15:30.675Z,34.75
2018-11-25T12:17:57.312Z,34.65
2018-11-25T12:20:26.795Z,33.18
2018-11-25T12:23:10.424Z,33.90
2018-11-25T12:25:38.928Z,31.65
2018-11-25T12:28:07.769Z,32.45
2018-11-25T12:30:36.719Z,33.30
2018-11-25T12:33:05.240Z,29.30
2018-11-25T12:35:33.749Z,32.75
2018-11-25T12:38:02.825Z,37.23
2018-11-25T12:40:32.177Z,36.58
2018-11-25T12:43:00.927Z,35.08
2018-11-25T12:45:31.251Z,34.48
2018-11-25T12:47:59.737Z,37.20
2018-11-25T12:50:28.289Z,33.92
2018-11-25T12:52:56.692Z,33.53
2018-11-25T12:55:26.589Z,33.90
2018-11-25T12:57:58.692Z,32.50
2018-11-25T13:00:31.896Z,34.53
2018-11-25T13:03:00.977Z,33.98
2018-11-25T13:05:30.017Z,35.75
2018-11-25T13:08:00.610Z,34.38
2018-11-25T13:10:29.146Z,35.13
2018-11-25T13:12:57.524Z,33.63
2018-11-25T13:15:26.119Z,33.38
2018-11-25T13:17:54.587Z,36.42
2018-11-25T13:20:22.992Z,34.88
2018-11-25T13:22:51.437Z,37.65
2018-11-25T13:25:20.047Z,36.85
2018-11-25T13:27:48.646Z,37.10
2018-11-25T13:30:23.611Z,35.83
2018-11-25T13:32:54.100Z,36.98
2018-11-25T13:35:22.937Z,32.83
2018-11-25T13:37:51.377Z,36.42
2018-11-25T13:40:19.884Z,35.75
2018-11-25T13:42:48.263Z,36.00
2018-11-25T13:45:18.362Z,37.40
2018-11-25T13:47:46.822Z,38.67
2018-11-25T13:50:15.767Z,35.80
2018-11-25T13:52:44.193Z,39.30
2018-11-25T13:55:15.104Z,35.35
2018-11-25T13:57:43.824Z,35.17
2018-11-25T14:00:45.064Z,34.98
2018-11-25T14:03:16.651Z,34.98
2018-11-25T14:05:52.619Z,36.08
2018-11-25T14:08:32.892Z,36.00
2018-11-25T14:11:06.847Z,36.93
2018-11-25T14:13:35.415Z,39.50
2018-11-25T14:16:04.200Z,35.23
2018-11-25T14:18:35.899Z,35.48
2018-11-25T14:21:33.663Z,42.10
2018-11-25T14:24:02.227Z,46.85
2018-11-25T14:26:34.623Z,35.70
2018-11-25T14:29:04.048Z,32.33
2018-11-25T14:31:37.461Z,32.67
2018-11-25T14:34:06.420Z,33.63
2018-11-25T14:36:34.855Z,32.40
2018-11-25T14:39:03.507Z,35.28
2018-11-25T14:41:32.096Z,32.53
2018-11-25T14:44:00.632Z,35.55
2018-11-25T14:46:29.116Z,35.03
2018-11-25T14:48:57.615Z,35.45
2018-11-25T14:51:27.115Z,32.65
2018-11-25T14:54:14.684Z,34.88
2018-11-25T14:56:43.118Z,33.15
2018-11-25T14:59:11.812Z,34.60
2018-11-25T15:01:40.275Z,35.38
2018-11-25T15:04:19.342Z,34.78
2018-11-25T15:06:50.096Z,36.55
2018-11-25T15:09:19.335Z,34.98
2018-11-25T15:11:47.924Z,36.13
2018-11-25T15:14:17.489Z,29.40
2018-11-25T15:19:41.938Z,30.92
2018-11-25T15:22:10.522Z,29.80
2018-11-25T15:24:39.122Z,25.50
2018-11-25T15:27:07.898Z,32.00
2018-11-25T15:29:36.372Z,23.25
2018-11-25T16:14:36.440Z,22.37
2018-11-25T16:17:05.361Z,23.80
2018-11-25T16:19:33.951Z,23.52
2018-11-25T16:22:02.468Z,21.93
2018-11-25T16:24:31.921Z,23.07
2018-11-25T16:47:21.049Z,21.68
2018-11-25T16:49:49.717Z,23.45
2018-11-25T16:52:18.183Z,22.73
2018-11-25T16:54:46.681Z,21.30
2018-11-25T16:57:15.777Z,21.52
2018-11-25T16:59:43.757Z,22.20
2018-11-25T17:02:12.221Z,21.07
2018-11-25T17:04:40.715Z,20.80
2018-11-25T17:07:09.181Z,20.50
2018-11-25T17:09:37.686Z,22.30
2018-11-25T17:12:06.315Z,21.02
2018-11-25T17:14:34.801Z,21.07
2018-11-25T17:17:03.975Z,19.27
2018-11-25T17:19:34.310Z,21.57
2018-11-25T17:22:01.472Z,19.98
2018-11-25T17:25:02.954Z,20.50
2018-11-25T17:27:31.734Z,23.00
2018-11-25T17:30:00.281Z,26.90
2018-11-25T17:32:28.666Z,24.37
2018-11-25T17:34:57.296Z,19.35
2018-11-25T17:37:25.780Z,23.77
2018-11-25T17:39:54.222Z,21.73
2018-11-25T17:42:22.699Z,22.58
2018-11-25T17:44:51.215Z,22.42
2018-11-25T17:47:19.724Z,21.97
2018-11-25T17:49:48.170Z,21.57
2018-11-25T17:52:17.668Z,22.05
2018-11-25T17:54:46.399Z,22.13
2018-11-25T17:57:14.801Z,21.30
2018-11-25T17:59:43.262Z,21.52
2018-11-25T18:02:11.756Z,28.87
2018-11-25T18:04:40.239Z,25.10
2018-11-25T18:07:08.674Z,25.20
2018-11-25T18:09:37.224Z,25.32
2018-11-25T18:12:05.822Z,20.05
2018-11-25T18:14:34.324Z,20.02
2018-11-25T18:17:02.798Z,19.90
2018-11-25T18:19:31.282Z,27.20
2018-11-25T18:22:07.328Z,25.50
2018-11-25T18:24:36.395Z,22.93
2018-11-25T18:27:05.566Z,21.20
2018-11-25T18:29:34.002Z,21.20
2018-11-25T18:32:02.504Z,26.30
2018-11-25T18:34:31.756Z,24.37
2018-11-25T18:37:00.392Z,20.72
2018-11-25T18:39:28.970Z,32.53
2018-11-25T18:41:57.576Z,37.75
2018-11-25T18:44:27.216Z,39.73
2018-11-25T18:46:56.293Z,39.63
2018-11-25T18:49:24.899Z,24.82
2018-11-25T18:51:53.388Z,25.23
2018-11-25T18:54:21.995Z,21.02
2018-11-25T18:56:50.493Z,19.67
2018-11-25T19:02:31.959Z,19.32
2018-11-25T19:05:02.477Z,19.02
2018-11-25T19:07:31.709Z,18.57
2018-11-25T19:10:00.201Z,21.68
2018-11-25T19:12:28.825Z,20.20
2018-11-25T19:15:20.719Z,23.00
2018-11-25T19:18:54.252Z,23.90
2018-11-25T19:22:44.373Z,26.17
2018-11-25T19:25:17.365Z,18.80
2018-11-25T19:31:04.952Z,20.45
2018-11-25T19:34:04.686Z,21.77
2018-11-25T19:37:10.037Z,22.67
2018-11-25T19:40:01.410Z,38.83
2018-11-25T19:42:29.976Z,29.55
2018-11-25T19:45:30.292Z,23.42
2018-11-25T19:47:59.821Z,35.68
2018-11-25T19:53:30.736Z,29.75
2018-11-25T19:55:59.256Z,26.15
2018-11-25T19:58:27.920Z,24.63
2018-11-25T20:00:56.664Z,25.02
2018-11-25T20:03:25.620Z,26.77
2018-11-25T20:05:54.042Z,33.48
2018-11-25T20:08:22.480Z,23.70
2018-11-25T20:10:51.283Z,27.65
2018-11-25T20:13:19.892Z,26.05
2018-11-25T20:15:49.352Z,20.27
2018-11-25T20:18:18.173Z,24.65
2018-11-25T20:20:51.136Z,23.60
2018-11-25T20:23:20.482Z,21.62
2018-11-25T20:25:49.016Z,18.75
2018-11-25T21:23:00.624Z,36.17
2018-11-25T22:24:35.293Z,16.97
2018-11-25T22:27:04.267Z,19.20
2018-11-25T22:29:36.101Z,17.35
2018-11-25T22:32:08.672Z,17.50
2018-11-25T22:34:43.351Z,17.27
2018-11-25T22:37:11.993Z,15.85
2018-11-25T22:39:41.901Z,17.40
2018-11-25T22:42:10.833Z,17.52
2018-11-25T22:44:39.616Z,17.60
2018-11-25T22:47:08.957Z,18.17
2018-11-25T22:49:37.545Z,18.55
2018-11-25T22:52:06.302Z,18.07
2018-11-25T22:54:35.365Z,17.82
2018-11-25T22:57:05.745Z,19.90
2018-11-25T22:59:34.811Z,16.35
2018-11-25T23:02:03.976Z,17.17
2018-11-25T23:06:47.043Z,17.62
2018-11-25T23:09:15.583Z,16.10
2018-11-25T23:11:43.991Z,17.55
2018-11-25T23:14:12.457Z,17.40
2018-11-25T23:16:40.925Z,17.50
2018-11-25T23:19:09.421Z,17.48
2018-11-25T23:21:37.825Z,16.95
2018-11-25T23:24:06.379Z,17.12
2018-11-25T23:26:34.824Z,16.77
2018-11-25T23:29:03.285Z,17.98
2018-11-25T23:31:31.737Z,16.97
2018-11-25T23:34:00.095Z,18.57
2018-11-25T23:36:28.559Z,18.87
2018-11-25T23:38:57.095Z,55.55
2018-11-25T23:41:25.599Z,39.58
2018-11-25T23:43:54.064Z,26.27
2018-11-25T23:46:22.469Z,20.45
2018-11-25T23:48:51.023Z,17.05
2018-11-25T23:51:19.448Z,15.98
2018-11-25T23:53:48.237Z,16.97
2018-11-25T23:56:17.880Z,17.17
2018-11-25T23:58:46.457Z,16.25
